createdAt,value
2022-10-15T00:00:18.640Z,12.90
2022-10-15T00:04:18.884Z,12.80
2022-10-15T00:08:21.734Z,12.80
2022-10-15T00:12:21.839Z,12.80
2022-10-15T00:16:25.606Z,12.80
2022-10-15T00:20:26.071Z,12.80
2022-10-15T00:24:28.957Z,12.80
2022-10-15T00:28:31.950Z,12.80
2022-10-15T00:32:35.100Z,12.80
2022-10-15T00:36:40.444Z,12.80
2022-10-15T00:40:44.282Z,12.80
2022-10-15T00:44:57.926Z,12.80
2022-10-15T00:49:05.369Z,12.80
2022-10-15T00:53:11.424Z,12.80
2022-10-15T00:57:16.214Z,12.80
2022-10-15T01:01:16.828Z,12.80
2022-10-15T01:05:19.907Z,12.80
2022-10-15T01:09:20.315Z,12.80
2022-10-15T01:13:36.927Z,12.90
2022-10-15T01:17:47.943Z,12.80
2022-10-15T01:21:57.308Z,12.90
2022-10-15T01:26:24.504Z,12.90
2022-10-15T01:30:30.668Z,12.80
2022-10-15T01:34:43.485Z,12.80
2022-10-15T01:39:01.135Z,12.80
2022-10-15T01:43:08.675Z,12.80
2022-10-15T01:47:27.423Z,12.80
2022-10-15T01:51:30.088Z,12.80
2022-10-15T01:55:34.526Z,12.80
2022-10-15T01:59:37.722Z,12.90
2022-10-15T02:03:51.141Z,12.90
2022-10-15T02:08:03.293Z,12.80
2022-10-15T02:12:24.538Z,12.80
2022-10-15T02:16:33.703Z,12.80
2022-10-15T02:20:45.168Z,12.80
2022-10-15T02:24:55.420Z,12.80
2022-10-15T02:29:02.820Z,12.80
2022-10-15T02:33:03.644Z,12.80
2022-10-15T02:37:09.922Z,12.80
2022-10-15T02:41:12.180Z,12.80
2022-10-15T02:45:13.597Z,12.80
2022-10-15T02:49:15.239Z,12.80
2022-10-15T02:53:18.007Z,12.80
2022-10-15T02:57:18.376Z,12.90
2022-10-15T03:01:19.470Z,12.90
2022-10-15T03:05:20.758Z,12.80
2022-10-15T03:09:24.146Z,12.80
2022-10-15T03:13:24.315Z,12.80
2022-10-15T03:17:26.381Z,12.90
2022-10-15T03:21:28.705Z,12.90
2022-10-15T03:25:37.102Z,12.90
2022-10-15T03:29:38.567Z,12.90
2022-10-15T03:33:38.836Z,12.90
2022-10-15T03:37:39.642Z,12.80
2022-10-15T03:46:11.053Z,12.90
2022-10-15T03:50:16.230Z,12.90
2022-10-15T03:54:17.247Z,12.90
2022-10-15T03:58:26.168Z,12.90
2022-10-15T04:02:30.330Z,12.90
2022-10-15T04:06:30.713Z,12.90
2022-10-15T04:10:36.321Z,12.90
2022-10-15T04:14:39.226Z,12.90
2022-10-15T04:18:39.512Z,12.90
2022-10-15T04:22:40.796Z,12.90
2022-10-15T04:26:41.742Z,12.90
2022-10-15T04:30:44.644Z,12.90
2022-10-15T04:34:46.964Z,12.90
2022-10-15T04:38:48.497Z,12.90
2022-10-15T04:42:56.200Z,12.90
2022-10-15T04:47:00.613Z,12.90
2022-10-15T04:51:19.126Z,12.90
2022-10-15T04:55:34.441Z,12.90
2022-10-15T04:59:36.141Z,12.90
2022-10-15T05:04:17.629Z,12.90
2022-10-15T05:08:17.817Z,12.90
2022-10-15T05:12:34.475Z,12.90
2022-10-15T05:16:35.396Z,12.90
2022-10-15T05:20:38.518Z,12.90
2022-10-15T05:24:39.051Z,12.90
2022-10-15T05:28:54.776Z,12.90
2022-10-15T05:32:59.320Z,12.90
2022-10-15T05:37:02.319Z,12.90
2022-10-15T05:41:02.438Z,12.90
2022-10-15T05:45:02.682Z,12.90
2022-10-15T05:49:02.980Z,12.90
2022-10-15T05:53:13.768Z,12.90
2022-10-15T05:57:22.069Z,12.90
2022-10-15T06:01:23.180Z,12.90
2022-10-15T06:05:26.653Z,12.90
2022-10-15T06:09:30.801Z,13.00
2022-10-15T06:13:30.982Z,13.00
2022-10-15T06:17:31.392Z,13.00
2022-10-15T06:21:31.703Z,13.00
2022-10-15T06:25:35.019Z,13.00
2022-10-15T06:29:35.124Z,13.10
2022-10-15T06:33:37.355Z,13.10
2022-10-15T06:37:37.646Z,13.10
2022-10-15T06:41:40.367Z,13.10
2022-10-15T06:45:45.203Z,13.20
2022-10-15T06:49:50.852Z,13.20
2022-10-15T06:53:51.054Z,13.30
2022-10-15T06:57:54.666Z,13.30
2022-10-15T07:01:55.575Z,13.40
2022-10-15T07:05:55.662Z,13.40
2022-10-15T07:09:56.073Z,13.40
2022-10-15T07:13:58.755Z,13.40
2022-10-15T07:18:01.633Z,13.50
2022-10-15T07:22:02.938Z,13.50
2022-10-15T07:26:04.193Z,13.50
2022-10-15T07:30:09.938Z,13.60
2022-10-15T07:34:10.229Z,13.60
2022-10-15T07:38:10.330Z,13.80
2022-10-15T07:42:10.357Z,13.90
2022-10-15T07:46:13.661Z,14.00
2022-10-15T07:50:13.787Z,14.10
2022-10-15T07:54:13.861Z,14.20
2022-10-15T07:58:13.945Z,14.30
2022-10-15T08:02:19.792Z,14.30
2022-10-15T08:06:20.516Z,14.50
2022-10-15T08:10:20.948Z,14.60
2022-10-15T08:14:21.189Z,14.70
2022-10-15T08:18:24.081Z,14.80
2022-10-15T08:22:25.591Z,14.80
2022-10-15T08:26:29.314Z,14.90
2022-10-15T08:30:29.531Z,14.90
2022-10-15T08:34:32.298Z,15.00
2022-10-15T08:38:34.767Z,15.00
2022-10-15T08:42:40.232Z,15.10
2022-10-15T08:46:49.060Z,15.10
2022-10-15T08:50:59.773Z,15.20
2022-10-15T08:55:02.929Z,15.20
2022-10-15T08:59:16.176Z,15.20
2022-10-15T09:03:34.734Z,15.30
2022-10-15T09:07:45.114Z,15.30
2022-10-15T09:11:59.710Z,15.30
2022-10-15T09:16:16.456Z,15.40
2022-10-15T09:20:21.621Z,15.40
2022-10-15T09:24:32.889Z,15.30
2022-10-15T09:28:43.648Z,15.30
2022-10-15T09:32:55.790Z,15.30
2022-10-15T09:37:05.889Z,15.40
2022-10-15T09:41:27.528Z,15.40
2022-10-15T09:45:28.302Z,15.40
2022-10-15T09:49:35.448Z,15.50
2022-10-15T09:53:55.278Z,15.60
2022-10-15T09:58:04.589Z,15.60
2022-10-15T10:02:07.869Z,15.70
2022-10-15T10:06:12.488Z,15.80
2022-10-15T10:10:30.082Z,15.80
2022-10-15T10:14:36.558Z,15.90
2022-10-15T10:18:37.723Z,16.00
2022-10-15T10:22:50.523Z,16.10
2022-10-15T10:26:52.104Z,16.30
2022-10-15T10:31:04.516Z,16.40
2022-10-15T10:35:07.587Z,16.40
2022-10-15T10:39:28.271Z,16.40
2022-10-15T10:43:32.578Z,16.60
2022-10-15T10:47:40.127Z,16.60
2022-10-15T10:51:52.705Z,16.50
2022-10-15T10:55:54.651Z,16.60
2022-10-15T10:59:59.826Z,16.70
2022-10-15T11:04:02.617Z,16.90
2022-10-15T11:08:16.789Z,17.00
2022-10-15T11:12:55.947Z,17.10
2022-10-15T11:17:10.495Z,17.30
2022-10-15T11:21:29.996Z,17.40
2022-10-15T11:25:43.678Z,17.20
2022-10-15T11:29:56.511Z,16.90
2022-10-15T11:34:20.649Z,16.70
2022-10-15T11:38:36.767Z,16.70
2022-10-15T11:42:46.047Z,17.00
2022-10-15T11:46:56.399Z,17.00
2022-10-15T11:51:05.655Z,17.10
2022-10-15T11:55:20.285Z,17.20
2022-10-15T11:59:36.413Z,17.30
2022-10-15T12:03:48.330Z,17.30
2022-10-15T12:07:51.399Z,17.40
2022-10-15T12:12:08.242Z,17.10
2022-10-15T12:16:27.802Z,17.00
2022-10-15T12:20:29.980Z,16.90
2022-10-15T12:24:58.236Z,17.10
2022-10-15T12:29:05.341Z,17.50
2022-10-15T12:33:07.725Z,17.90
2022-10-15T12:37:18.464Z,18.40
2022-10-15T12:41:18.687Z,19.20
2022-10-15T12:45:34.639Z,19.80
2022-10-15T12:50:03.855Z,20.20
2022-10-15T12:54:04.246Z,21.10
2022-10-15T12:58:08.443Z,21.00
2022-10-15T13:02:38.867Z,21.50
2022-10-15T13:06:41.554Z,21.30
2022-10-15T13:10:50.615Z,21.40
2022-10-15T13:14:58.048Z,21.00
2022-10-15T13:19:00.822Z,19.80
2022-10-15T13:23:30.116Z,19.10
2022-10-15T13:27:34.736Z,18.80
2022-10-15T13:31:39.652Z,18.80
2022-10-15T13:35:43.114Z,18.70
2022-10-15T13:39:44.366Z,18.70
2022-10-15T13:43:58.881Z,18.50
2022-10-15T13:47:59.388Z,18.30
2022-10-15T13:52:02.106Z,18.00
2022-10-15T13:56:06.197Z,18.00
2022-10-15T14:00:08.118Z,18.00
2022-10-15T14:04:19.902Z,18.10
2022-10-15T14:08:27.378Z,18.40
2022-10-15T14:12:27.554Z,18.40
2022-10-15T14:16:32.366Z,18.30
2022-10-15T14:20:32.537Z,18.20
2022-10-15T14:24:39.298Z,17.90
2022-10-15T14:28:42.548Z,17.80
2022-10-15T14:32:51.714Z,17.90
2022-10-15T14:36:51.834Z,18.40
2022-10-15T14:41:07.729Z,18.60
2022-10-15T14:45:16.847Z,18.30
2022-10-15T14:49:27.454Z,19.00
2022-10-15T14:53:31.662Z,19.30
2022-10-15T14:57:39.617Z,19.20
2022-10-15T15:01:40.064Z,19.80
2022-10-15T15:05:49.966Z,19.40
2022-10-15T15:09:54.212Z,19.00
2022-10-15T15:13:57.514Z,19.90
2022-10-15T15:17:57.651Z,21.10
2022-10-15T15:21:58.318Z,22.10
2022-10-15T15:25:58.920Z,21.30
2022-10-15T15:30:02.015Z,20.00
2022-10-15T15:34:02.253Z,19.20
2022-10-15T15:38:02.361Z,18.70
2022-10-15T15:42:02.470Z,18.20
2022-10-15T15:46:05.321Z,17.80
2022-10-15T15:50:05.497Z,17.50
2022-10-15T15:54:07.315Z,17.40
2022-10-15T15:58:07.646Z,17.40
2022-10-15T16:02:10.589Z,17.30
2022-10-15T16:06:12.281Z,17.10
2022-10-15T16:10:13.971Z,16.90
2022-10-15T16:14:14.688Z,16.80
2022-10-15T16:18:17.364Z,16.60
2022-10-15T16:22:17.770Z,16.50
2022-10-15T16:26:18.102Z,16.40
2022-10-15T16:30:19.216Z,16.40
2022-10-15T16:34:22.208Z,16.30
2022-10-15T16:38:22.847Z,16.20
2022-10-15T16:42:22.987Z,16.20
2022-10-15T16:46:23.683Z,16.20
2022-10-15T16:50:26.513Z,16.20
2022-10-15T16:54:26.728Z,16.20
2022-10-15T16:58:26.894Z,16.20
2022-10-15T17:02:27.500Z,16.10
2022-10-15T17:06:34.026Z,16.10
2022-10-15T17:10:34.199Z,16.10
2022-10-15T17:14:34.430Z,16.10
2022-10-15T17:18:34.632Z,16.10
2022-10-15T17:22:37.856Z,16.00
2022-10-15T17:26:40.755Z,16.00
2022-10-15T17:30:41.474Z,15.90
2022-10-15T17:34:41.837Z,15.90
2022-10-15T17:38:45.146Z,15.90
2022-10-15T17:42:45.480Z,16.00
2022-10-15T17:46:45.934Z,16.00
2022-10-15T17:50:46.143Z,16.00
2022-10-15T17:54:48.861Z,16.00
2022-10-15T17:58:49.837Z,15.90
2022-10-15T18:02:52.628Z,15.90
2022-10-15T18:06:52.995Z,15.90
2022-10-15T18:11:01.708Z,15.80
2022-10-15T18:15:02.639Z,15.80
2022-10-15T18:19:02.853Z,15.70
2022-10-15T18:23:03.022Z,15.70
2022-10-15T18:27:06.564Z,15.60
2022-10-15T18:31:09.678Z,15.60
2022-10-15T18:35:11.094Z,15.50
2022-10-15T18:39:12.822Z,15.50
2022-10-15T18:43:18.784Z,15.50
2022-10-15T18:47:19.760Z,15.50
2022-10-15T18:51:20.749Z,15.50
2022-10-15T18:55:21.866Z,15.50
2022-10-15T18:59:24.659Z,15.60
2022-10-15T19:03:25.493Z,15.50
2022-10-15T19:07:25.958Z,15.50
2022-10-15T19:11:26.552Z,15.40
2022-10-15T19:15:29.657Z,15.40
2022-10-15T19:19:32.106Z,15.30
2022-10-15T19:23:32.703Z,15.10
2022-10-15T19:27:32.863Z,15.00
2022-10-15T19:31:39.980Z,14.90
2022-10-15T19:35:44.526Z,14.90
2022-10-15T19:39:48.363Z,14.90
2022-10-15T19:43:50.125Z,14.90
2022-10-15T19:47:59.873Z,14.90
2022-10-15T19:52:02.878Z,14.80
2022-10-15T19:56:06.044Z,14.80
2022-10-15T20:00:07.900Z,14.80
2022-10-15T20:04:15.196Z,14.80
2022-10-15T20:08:16.297Z,14.80
2022-10-15T20:12:16.617Z,14.80
2022-10-15T20:16:19.539Z,14.80
2022-10-15T20:20:24.951Z,14.80
2022-10-15T20:24:25.283Z,14.80
2022-10-15T20:28:25.517Z,14.80
2022-10-15T20:32:41.418Z,14.80
2022-10-15T20:36:44.507Z,14.70
2022-10-15T20:40:44.749Z,14.80
2022-10-15T20:44:45.305Z,14.70
2022-10-15T20:48:48.856Z,14.70
2022-10-15T20:52:51.851Z,14.80
2022-10-15T20:56:52.833Z,14.80
2022-10-15T21:00:52.913Z,14.80
2022-10-15T21:04:53.525Z,14.80
2022-10-15T21:08:56.313Z,14.80
2022-10-15T21:12:56.430Z,14.80
2022-10-15T21:16:56.530Z,14.80
2022-10-15T21:20:56.871Z,14.80
2022-10-15T21:24:59.592Z,14.80
2022-10-15T21:29:01.982Z,14.80
2022-10-15T21:33:02.185Z,14.80
2022-10-15T21:37:02.322Z,14.80
2022-10-15T21:41:07.557Z,14.70
2022-10-15T21:45:09.092Z,14.80
2022-10-15T21:49:09.395Z,14.70
2022-10-15T21:53:09.669Z,14.70
2022-10-15T21:57:13.925Z,14.70
2022-10-15T22:01:19.297Z,14.70
2022-10-15T22:05:20.051Z,14.70
2022-10-15T22:09:20.390Z,14.60
2022-10-15T22:13:23.082Z,14.70
2022-10-15T22:17:23.190Z,14.60
2022-10-15T22:21:26.461Z,14.60
2022-10-15T22:25:26.509Z,14.60
2022-10-15T22:29:35.201Z,14.70
2022-10-15T22:33:37.418Z,14.60
2022-10-15T22:37:38.986Z,14.60
2022-10-15T22:41:42.791Z,14.60
2022-10-15T22:45:45.698Z,14.50
2022-10-15T22:49:45.802Z,14.50
2022-10-15T22:53:46.382Z,14.50
2022-10-15T22:57:47.563Z,14.50
2022-10-15T23:01:50.617Z,14.50
2022-10-15T23:05:55.273Z,14.40
2022-10-15T23:09:56.510Z,14.40
2022-10-15T23:13:59.804Z,14.40
2022-10-15T23:18:02.754Z,14.40
2022-10-15T23:22:03.537Z,14.40
2022-10-15T23:26:03.595Z,14.50
2022-10-15T23:30:14.500Z,14.50
2022-10-15T23:34:28.914Z,14.50
2022-10-15T23:38:30.358Z,14.50
2022-10-15T23:42:32.062Z,14.50
2022-10-15T23:46:32.608Z,14.50
2022-10-15T23:50:39.731Z,14.50
2022-10-15T23:54:42.453Z,14.50
2022-10-15T23:58:43.868Z,14.60
